Portada
METAR-TAF:

METAR-TAF

Aeroports :

Aeroport de Port Bouet

Abidjan, Costa d'Ivori

latitud: 05-15N, longitud: 003-56W, altitud: 7 m

Observació

L'informe es va fer fa 38 minuts, a les 05:00 UTC
Vent 2 kt del Nord
Temperatura 26°C
Humitat 94%
Pressió 1010 hPa
Visibilitat 10 km o més
Escasses núvols a una alçada de 1200 ft

METAR: DIAP 280500Z 36002KT 9999 FEW012 26/25 Q1010 NOSIG

Hora: 05:38 (05:38 UTC)

Pronòstic

L'informe es va fer fa 6 hores i 38 minuts, a les 23:00 UTC
Pronòstic vàlid del 28 a les 00 UTC al 29 a les 06 UTC
Vent 5 kt del Sud-Oest
Visibilitat 10 km o més
Núvols disperses a una alçada de 1200 ft
Temporalment
l' 28 a les 05 UTC al 28 a les 10 UTC
Cel ennuvolat a una alçada de 1200 ft
Probabilitat 30% :
Temporalment
l' 28 a les 15 UTC al 28 a les 20 UTC
Cel ennuvolat a una alçada de 1200 ft
Escasses núvols a una alçada de 2000 ft, Cumulonimbus.
tempesta

TAF: DIAP 272300Z 2800/2906 23005KT 9999 SCT012 TEMPO 2805/2810 BKN012 PROB30 TEMPO 2815/2820 TS BKN012 FEW020CB

Observacions i pronòstics meteorològics de més de 4000 aeroports (METAR i TAF).

Les estacions disponibles són els punts grocs i vermells al mapa.

Posi el ratolí al punt desitjat per veure el nom de l'estació.

Feu clic per veure les observacions i els pronòstics meteorològics.

Per canviar el mapa: feu clic els botons verds amb una creu de color negre per apropar; al botó verd amb un guió per allunyar la imatge; o en les fletxes verdes per a mapes adjacents.


METAR-TAF: